SWA4080 KDEN-KTUS
Flight info
| Callsign | SWA4080 |
|---|---|
| Flight time | N/A |
| Altitude | 40000 |
| Route | SUDDZ1 SUDDZ ABQ SSO ZONNA2 |
| Aircraft | B738/M-SADE2E3GIJ4RWZ/LB1D1 |
Departure
| Time | 2026-05-04 15:59 |
|---|---|
| Airport | Denver International Airport (KDEN) |
Arrival
| Time | N/A |
|---|---|
| Airport | Tucson International Airport (KTUS) |
| Time | Latitude | Longitude | Altitude | Speed | Heading |
|---|---|---|---|---|---|
| 2026-05-04 15:37 | 39.86349 | -104.66957 | 5376 ft | 0 kts | 180° |
| 2026-05-04 15:50 | 39.86353 | -104.66957 | 5371 ft | 3 kts | 180° |
| 2026-05-04 15:51 | 39.86380 | -104.66957 | 5372 ft | 4 kts | 180° |
| 2026-05-04 15:51 | 39.86402 | -104.66956 | 5374 ft | 4 kts | 180° |
| 2026-05-04 15:51 | 39.86407 | -104.66956 | 5373 ft | 0 kts | 180° |
| 2026-05-04 15:54 | 39.86406 | -104.66957 | 5376 ft | 1 kts | 181° |
| 2026-05-04 15:54 | 39.86405 | -104.66970 | 5374 ft | 3 kts | 275° |
| 2026-05-04 15:54 | 39.86426 | -104.67007 | 5375 ft | 9 kts | 312° |
| 2026-05-04 15:54 | 39.86474 | -104.67096 | 5375 ft | 13 kts | 282° |
| 2026-05-04 15:55 | 39.86474 | -104.67243 | 5376 ft | 20 kts | 270° |
| 2026-05-04 15:55 | 39.86474 | -104.67456 | 5375 ft | 27 kts | 271° |
| 2026-05-04 15:55 | 39.86476 | -104.67608 | 5376 ft | 16 kts | 270° |
| 2026-05-04 15:55 | 39.86477 | -104.67752 | 5376 ft | 16 kts | 270° |
| 2026-05-04 15:56 | 39.86478 | -104.67890 | 5376 ft | 15 kts | 270° |
| 2026-05-04 15:56 | 39.86479 | -104.68022 | 5374 ft | 14 kts | 270° |
| 2026-05-04 15:56 | 39.86480 | -104.68150 | 5372 ft | 14 kts | 271° |
| 2026-05-04 15:56 | 39.86479 | -104.68290 | 5370 ft | 15 kts | 272° |
| 2026-05-04 15:57 | 39.86451 | -104.68396 | 5363 ft | 13 kts | 217° |
| 2026-05-04 15:57 | 39.86427 | -104.68504 | 5362 ft | 8 kts | 269° |
| 2026-05-04 15:57 | 39.86427 | -104.68569 | 5362 ft | 0 kts | 271° |
| 2026-05-04 15:57 | 39.86427 | -104.68571 | 5362 ft | 0 kts | 271° |
| 2026-05-04 15:58 | 39.86427 | -104.68576 | 5362 ft | 2 kts | 271° |
| 2026-05-04 15:58 | 39.86427 | -104.68620 | 5362 ft | 8 kts | 270° |
| 2026-05-04 15:58 | 39.86434 | -104.68711 | 5361 ft | 9 kts | 300° |
| 2026-05-04 15:58 | 39.86453 | -104.68719 | 5361 ft | 4 kts | 0° |
| 2026-05-04 15:59 | 39.86692 | -104.68717 | 5363 ft | 73 kts | 1° |
| 2026-05-04 15:59 | 39.87451 | -104.68709 | 5361 ft | 142 kts | 0° |
| 2026-05-04 15:59 | 39.88593 | -104.68644 | 5665 ft | 174 kts | 0° |
| 2026-05-04 15:59 | 39.89854 | -104.68536 | 6330 ft | 193 kts | 1° |
| 2026-05-04 16:00 | 39.91208 | -104.68420 | 7156 ft | 197 kts | 0° |
| 2026-05-04 16:00 | 39.92147 | -104.68344 | 7474 ft | 212 kts | 1° |
| 2026-05-04 16:00 | 39.93719 | -104.68233 | 7685 ft | 239 kts | 0° |
| 2026-05-04 16:00 | 39.96037 | -104.68079 | 8201 ft | 259 kts | 0° |
| 2026-05-04 16:01 | 39.97835 | -104.68349 | 8721 ft | 268 kts | 340° |
| 2026-05-04 16:01 | 39.98948 | -104.69156 | 9009 ft | 277 kts | 317° |
| 2026-05-04 16:01 | 39.99978 | -104.71292 | 9827 ft | 285 kts | 286° |
| 2026-05-04 16:01 | 40.00299 | -104.73867 | 10650 ft | 297 kts | 277° |
| 2026-05-04 16:02 | 40.00163 | -104.76683 | 10942 ft | 329 kts | 253° |
| 2026-05-04 16:02 | 39.98918 | -104.79239 | 11727 ft | 343 kts | 225° |
| 2026-05-04 16:02 | 39.94570 | -104.81914 | 13748 ft | 358 kts | 197° |
| 2026-05-04 16:03 | 39.92084 | -104.82418 | 14652 ft | 365 kts | 185° |
| 2026-05-04 16:03 | 39.89538 | -104.82534 | 15688 ft | 368 kts | 182° |
| 2026-05-04 16:03 | 39.86964 | -104.82564 | 16722 ft | 371 kts | 182° |
| 2026-05-04 16:03 | 39.84371 | -104.82576 | 17712 ft | 375 kts | 182° |
| 2026-05-04 16:04 | 39.81747 | -104.82594 | 18607 ft | 379 kts | 182° |
| 2026-05-04 16:04 | 39.76418 | -104.82670 | 20288 ft | 387 kts | 183° |
| 2026-05-04 16:04 | 39.73710 | -104.82725 | 21101 ft | 391 kts | 183° |
| 2026-05-04 16:05 | 39.70975 | -104.82787 | 21895 ft | 396 kts | 183° |
| 2026-05-04 16:05 | 39.68206 | -104.82852 | 22680 ft | 400 kts | 184° |
| 2026-05-04 16:05 | 39.62583 | -104.82986 | 24098 ft | 408 kts | 184° |
| 2026-05-04 16:06 | 39.59729 | -104.83056 | 24720 ft | 412 kts | 184° |
| 2026-05-04 16:06 | 39.51019 | -104.83271 | 26514 ft | 423 kts | 186° |
| 2026-05-04 16:07 | 39.48077 | -104.83344 | 27049 ft | 427 kts | 186° |
| 2026-05-04 16:07 | 39.39013 | -104.83562 | 28559 ft | 440 kts | 187° |
| 2026-05-04 16:08 | 39.35944 | -104.83637 | 28957 ft | 444 kts | 187° |
| 2026-05-04 16:08 | 39.26551 | -104.83864 | 30269 ft | 456 kts | 189° |
| 2026-05-04 16:09 | 39.20164 | -104.84013 | 31137 ft | 461 kts | 190° |
| 2026-05-04 16:09 | 39.13739 | -104.84166 | 32129 ft | 461 kts | 191° |
| 2026-05-04 16:10 | 39.07629 | -104.85457 | 33373 ft | 433 kts | 207° |
| 2026-05-04 16:11 | 38.99100 | -104.88896 | 34902 ft | 425 kts | 208° |
| 2026-05-04 16:11 | 38.96277 | -104.90018 | 35311 ft | 425 kts | 208° |
| 2026-05-04 16:12 | 38.87842 | -104.93299 | 36799 ft | 417 kts | 208° |
| 2026-05-04 16:12 | 38.79580 | -104.96497 | 37975 ft | 410 kts | 209° |
| 2026-05-04 16:13 | 38.74200 | -104.98645 | 38925 ft | 404 kts | 210° |
| 2026-05-04 16:13 | 38.68754 | -105.00685 | 39199 ft | 411 kts | 209° |
| 2026-05-04 16:14 | 38.63265 | -105.02782 | 39713 ft | 412 kts | 209° |
| 2026-05-04 16:14 | 38.57724 | -105.04913 | 39727 ft | 416 kts | 210° |
| 2026-05-04 16:16 | 38.44071 | -105.10128 | 39777 ft | 408 kts | 210° |
| 2026-05-04 16:17 | 38.30462 | -105.15318 | 39786 ft | 408 kts | 211° |
| 2026-05-04 16:18 | 38.19602 | -105.19429 | 39798 ft | 407 kts | 211° |
| 2026-05-04 16:19 | 38.05873 | -105.24645 | 39848 ft | 416 kts | 211° |
| 2026-05-04 16:20 | 37.92168 | -105.29800 | 39865 ft | 405 kts | 211° |
| 2026-05-04 16:21 | 37.84428 | -105.33515 | 39852 ft | 392 kts | 218° |
| 2026-05-04 16:22 | 37.79451 | -105.36316 | 39908 ft | 392 kts | 218° |
| 2026-05-04 16:23 | 37.64294 | -105.44691 | 39909 ft | 400 kts | 217° |
| 2026-05-04 16:25 | 37.48883 | -105.53051 | 39981 ft | 403 kts | 217° |
| 2026-05-04 16:26 | 37.30919 | -105.62832 | 40015 ft | 401 kts | 217° |
| 2026-05-04 16:28 | 37.18165 | -105.69720 | 39919 ft | 397 kts | 218° |
| 2026-05-04 16:29 | 37.00521 | -105.79212 | 39916 ft | 393 kts | 218° |
| 2026-05-04 16:31 | 36.87936 | -105.85953 | 39884 ft | 394 kts | 218° |
| 2026-05-04 16:32 | 36.72827 | -105.94015 | 39930 ft | 395 kts | 218° |
| 2026-05-04 16:33 | 36.62686 | -105.99406 | 39909 ft | 398 kts | 218° |
| 2026-05-04 16:34 | 36.55048 | -106.03455 | 39922 ft | 397 kts | 217° |
| 2026-05-04 16:35 | 36.39776 | -106.11525 | 39914 ft | 398 kts | 217° |
| 2026-05-04 16:36 | 36.32135 | -106.15547 | 39898 ft | 397 kts | 217° |
| 2026-05-04 16:37 | 36.24507 | -106.19556 | 39908 ft | 396 kts | 217° |
| 2026-05-04 16:38 | 36.14353 | -106.24880 | 39961 ft | 396 kts | 217° |
| 2026-05-04 16:39 | 36.01714 | -106.31485 | 40065 ft | 393 kts | 217° |
| 2026-05-04 16:40 | 35.91649 | -106.36779 | 40102 ft | 394 kts | 216° |
| 2026-05-04 16:41 | 35.79125 | -106.43255 | 39933 ft | 388 kts | 218° |
| 2026-05-04 16:43 | 35.66648 | -106.49707 | 39911 ft | 390 kts | 217° |
| 2026-05-04 16:43 | 35.59129 | -106.53578 | 39872 ft | 391 kts | 217° |
| 2026-05-04 16:45 | 35.44104 | -106.61312 | 39892 ft | 393 kts | 216° |
| 2026-05-04 16:46 | 35.31452 | -106.67798 | 39867 ft | 394 kts | 216° |
| 2026-05-04 16:47 | 35.22155 | -106.72552 | 39894 ft | 394 kts | 216° |
| 2026-05-04 16:48 | 35.14607 | -106.76402 | 40101 ft | 393 kts | 216° |
| 2026-05-04 16:48 | 35.12083 | -106.77689 | 40103 ft | 392 kts | 216° |
| 2026-05-04 16:49 | 35.02407 | -106.83342 | 40063 ft | 369 kts | 229° |
| 2026-05-04 16:50 | 34.94218 | -106.90924 | 39878 ft | 371 kts | 228° |
| 2026-05-04 16:51 | 34.88004 | -106.96624 | 39876 ft | 374 kts | 228° |
| 2026-05-04 16:52 | 34.79657 | -107.04246 | 39879 ft | 376 kts | 228° |
| 2026-05-04 16:53 | 34.73388 | -107.09956 | 39871 ft | 375 kts | 227° |
| 2026-05-04 16:54 | 34.65013 | -107.17572 | 39880 ft | 376 kts | 227° |
| 2026-05-04 16:55 | 34.52449 | -107.28956 | 39878 ft | 376 kts | 227° |
| 2026-05-04 16:56 | 34.41974 | -107.38416 | 39888 ft | 375 kts | 227° |
| 2026-05-04 16:57 | 34.35688 | -107.44079 | 39888 ft | 375 kts | 227° |
| 2026-05-04 16:58 | 34.27302 | -107.51619 | 39889 ft | 376 kts | 227° |
| 2026-05-04 17:00 | 34.14693 | -107.62911 | 39890 ft | 376 kts | 226° |